Time;durP1;ratioP1;P1;durP2;ratioP2;P2;SDS_P1;SDS_P2;PMS_P1;PMS_P2;Temp;Humidity;BMP_temperature;BMP_pressure;BME280_temperature;BME280_humidity;BME280_pressure;Samples;Min_cycle;Max_cycle;Signal;HPM_P1;HPM_P2
2023/01/12 00:00:59;;;;;;;11.10;8.10;;;;;;;7.31;75.74;100215.74;110292;1261;22923;-77
2023/01/12 00:03:32;;;;;;;8.50;7.70;;;;;;;7.34;75.79;100215.48;110542;1261;23725;-77
2023/01/12 00:06:18;;;;;;;8.40;7.60;;;;;;;7.36;75.83;100217.33;110633;1261;22930;-77
2023/01/12 00:09:07;;;;;;;9.60;8.60;;;;;;;7.37;75.77;100223.88;110307;1262;21972;-78
2023/01/12 00:11:50;;;;;;;10.80;9.40;;;;;;;7.38;75.90;100226.27;110428;1263;21989;-79
2023/01/12 00:16:33;;;;;;;;;;;;;;;;;;;;;
2023/01/12 00:18:11;;;;;;;11.30;9.70;;;;;;;7.40;75.94;100234.38;110493;1259;22168;-77
2023/01/12 00:24:24;;;;;;;;;;;;;;;7.40;75.90;100233.67;110441;1262;21963;-78
2023/01/12 00:27:07;;;;;;;10.80;9.70;;;;;;;7.32;76.17;100239.40;110605;1257;22461;-77
2023/01/12 00:29:44;;;;;;;12.50;11.20;;;;;;;7.35;76.23;100249.73;110939;1257;22018;-78
2023/01/12 00:32:40;;;;;;;10.60;9.60;;;;;;;7.39;76.24;100251.69;110843;1257;23597;-78
2023/01/12 00:35:19;;;;;;;11.40;10.20;;;;;;;7.44;76.32;100251.74;110734;1257;22072;-78
2023/01/12 00:37:57;;;;;;;10.70;9.60;;;;;;;7.46;76.14;100252.91;110773;1257;23688;-77
2023/01/12 00:40:27;;;;;;;9.80;8.50;;;;;;;7.48;76.07;100257.72;110748;1258;23722;-78
2023/01/12 00:45:52;;;;;;;10.30;9.40;;;;;;;7.50;76.16;100254.55;110695;1258;23644;-79
2023/01/12 00:48:43;;;;;;;10.20;9.10;;;;;;;7.49;76.12;100255.58;110619;1259;21965;-78
2023/01/12 00:51:24;;;;;;;10.50;9.40;;;;;;;7.52;76.19;100255.16;110584;1259;21969;-79
2023/01/12 00:54:06;;;;;;;10.40;9.40;;;;;;;7.53;76.13;100257.58;110704;1257;23395;-78
2023/01/12 00:56:46;;;;;;;10.00;9.10;;;;;;;7.52;76.19;100263.15;110730;1256;23729;-78
2023/01/12 00:59:43;;;;;;;10.50;9.50;;;;;;;7.52;76.22;100268.50;110450;1262;24315;-78
2023/01/12 01:02:30;;;;;;;10.70;9.60;;;;;;;7.54;76.32;100272.10;110417;1262;22436;-78
2023/01/12 01:05:19;;;;;;;11.30;9.10;;;;;;;7.54;76.23;100271.57;110251;1263;22834;-78
2023/01/12 01:08:06;;;;;;;13.50;9.60;;;;;;;7.54;76.30;100272.96;110202;1250;23141;-78
2023/01/12 01:10:47;;;;;;;11.10;10.10;;;;;;;7.54;76.33;100273.84;110296;1262;21997;-77
2023/01/12 01:14:03;;;;;;;13.30;12.10;;;;;;;7.55;76.40;100277.95;110352;1262;22197;-77
2023/01/12 01:16:55;;;;;;;12.60;11.30;;;;;;;7.56;76.41;100283.83;110381;1259;22435;-78
2023/01/12 01:20:12;;;;;;;13.10;11.90;;;;;;;7.57;76.61;100282.07;110749;1258;21969;-78
2023/01/12 01:23:25;;;;;;;13.20;11.80;;;;;;;7.58;76.49;100282.88;110812;1258;23638;-79
2023/01/12 01:26:23;;;;;;;13.80;12.30;;;;;;;7.56;76.50;100285.73;110776;1258;21962;-78
2023/01/12 01:29:04;;;;;;;13.90;12.40;;;;;;;7.56;76.44;100287.11;110727;1257;23718;-78
2023/01/12 01:31:46;;;;;;;12.70;11.50;;;;;;;7.56;76.53;100289.17;110405;1263;23592;-78
2023/01/12 01:34:30;;;;;;;14.00;12.70;;;;;;;7.57;76.53;100290.36;110526;1263;23829;-78
2023/01/12 01:37:34;;;;;;;14.00;12.60;;;;;;;7.58;76.53;100290.88;110264;1252;21970;-77
2023/01/12 01:40:29;;;;;;;14.70;13.30;;;;;;;7.54;76.50;100297.54;110452;1263;23101;-77
2023/01/12 01:43:15;;;;;;;15.20;13.60;;;;;;;7.54;76.63;100296.34;110417;1264;24369;-77
2023/01/12 01:46:19;;;;;;;16.80;13.00;;;;;;;7.54;76.72;100299.44;110285;1263;21972;-78
2023/01/12 01:49:40;;;;;;;14.80;12.40;;;;;;;7.54;76.74;100307.25;110301;1257;22320;-77
2023/01/12 01:52:29;;;;;;;14.30;12.80;;;;;;;7.54;76.86;100311.91;110843;1257;21968;-77
2023/01/12 01:55:12;;;;;;;14.30;12.90;;;;;;;7.56;76.94;100314.46;110836;1257;21969;-79
2023/01/12 01:57:56;;;;;;;12.80;11.60;;;;;;;7.57;76.85;100312.35;110265;1265;23684;-78
2023/01/12 02:01:09;;;;;;;13.20;11.70;;;;;;;7.54;76.67;100312.97;110026;1265;24378;-78
2023/01/12 02:04:29;;;;;;;;;;;;;;;;;;;;;
2023/01/12 02:07:40;;;;;;;13.90;12.60;;;;;;;7.46;76.81;100316.27;109811;1268;21970;-79
2023/01/12 02:10:15;;;;;;;15.70;14.20;;;;;;;7.48;76.81;100316.41;109933;1267;23030;-79
2023/01/12 02:16:30;;;;;;;16.60;15.10;;;;;;;7.47;76.95;100314.70;110498;1261;21967;-77
2023/01/12 02:19:54;;;;;;;15.30;14.00;;;;;;;7.49;76.98;100319.83;110505;1260;23718;-78
2023/01/12 02:23:10;;;;;;;15.00;13.60;;;;;;;7.50;77.05;100319.98;110521;1260;23721;-77
2023/01/12 02:26:53;;;;;;;15.30;14.00;;;;;;;7.52;77.12;100319.08;110892;1258;22054;-76
2023/01/12 02:29:48;;;;;;;17.80;15.60;;;;;;;7.53;77.25;100323.73;109816;1270;21983;-78
2023/01/12 02:33:22;;;;;;;;;;;;;;;;;;;;;
2023/01/12 02:36:40;;;;;;;18.40;16.50;;;;;;;7.56;77.20;100321.04;109649;1271;23047;-76
2023/01/12 02:40:15;;;;;;;18.90;17.00;;;;;;;7.58;77.23;100321.52;109676;1271;23598;-77
2023/01/12 02:43:45;;;;;;;;;;;;;;;;;;;;;
2023/01/12 02:47:07;;;;;;;17.30;15.20;;;;;;;7.61;77.25;100321.07;109710;1270;21983;-79
2023/01/12 02:49:51;;;;;;;18.20;13.60;;;;;;;7.66;77.20;100325.63;108997;1276;22030;-78
2023/01/12 02:52:32;;;;;;;14.60;13.00;;;;;;;7.69;77.07;100328.15;108948;1276;21982;-78
2023/01/12 02:55:23;;;;;;;15.10;13.60;;;;;;;7.69;77.05;100328.50;108996;1264;21993;-77
2023/01/12 02:58:11;;;;;;;16.50;14.60;;;;;;;7.71;77.03;100328.61;109059;1274;23038;-77
2023/01/12 03:01:28;;;;;;;19.00;17.10;;;;;;;7.71;76.98;100323.43;109206;1274;21981;-78
2023/01/12 03:04:33;;;;;;;19.30;17.60;;;;;;;7.69;77.00;100317.92;108985;1274;23608;-79
2023/01/12 03:08:01;;;;;;;21.20;18.90;;;;;;;7.68;77.00;100316.56;110389;1258;23603;-79
2023/01/12 03:11:29;;;;;;;20.20;18.20;;;;;;;7.66;76.91;100319.23;110426;1263;24300;-79
2023/01/12 03:14:35;;;;;;;21.90;19.60;;;;;;;7.59;76.82;100321.31;110317;1264;22118;-79
2023/01/12 03:18:30;;;;;;;;;;;;;;;;;;;;;
2023/01/12 03:22:06;;;;;;;19.70;17.70;;;;;;;7.52;76.87;100324.10;109690;1268;23695;-78
2023/01/12 03:25:12;;;;;;;;;;;;;;;;;;;;;
2023/01/12 03:28:11;;;;;;;17.60;16.00;;;;;;;7.45;76.76;100320.98;108812;1278;23606;-80
2023/01/12 03:31:25;;;;;;;19.10;17.30;;;;;;;7.42;76.65;100329.20;108449;1283;23756;-78
2023/01/12 03:34:17;;;;;;;17.60;15.90;;;;;;;7.37;76.84;100326.20;108492;1280;23618;-78
2023/01/12 03:37:20;;;;;;;19.20;16.20;;;;;;;7.34;76.78;100320.92;108274;1285;22091;-79
2023/01/12 03:40:29;;;;;;;16.70;14.90;;;;;;;7.31;76.78;100319.42;108386;1285;23082;-77
2023/01/12 03:44:17;;;;;;;19.60;17.60;;;;;;;7.22;76.95;100319.81;108393;1285;22010;-77
2023/01/12 03:47:24;;;;;;;19.30;17.40;;;;;;;7.17;76.95;100320.45;108545;1281;22055;-78
2023/01/12 03:50:36;;;;;;;18.90;16.80;;;;;;;7.16;77.00;100317.21;108982;1277;23761;-78
2023/01/12 03:53:26;;;;;;;19.20;17.20;;;;;;;7.14;77.07;100317.41;108872;1273;22933;-77
2023/01/12 03:56:11;;;;;;;18.20;16.30;;;;;;;7.12;77.01;100316.26;109181;1273;22905;-78
2023/01/12 03:58:51;;;;;;;16.50;14.80;;;;;;;7.08;76.90;100314.61;110026;1267;23183;-79
2023/01/12 04:01:34;;;;;;;18.60;14.40;;;;;;;7.05;76.97;100317.80;110208;1256;21963;-78
2023/01/12 04:04:30;;;;;;;16.10;14.40;;;;;;;7.01;76.97;100318.41;110641;1257;23021;-78
2023/01/12 04:07:14;;;;;;;20.30;15.60;;;;;;;6.96;76.96;100323.71;110768;1257;24778;-78
2023/01/12 04:09:49;;;;;;;17.00;15.30;;;;;;;6.92;76.92;100330.21;110908;1257;23699;-78
2023/01/12 04:12:51;;;;;;;19.50;16.20;;;;;;;6.88;76.95;100336.02;110852;1257;21980;-78
2023/01/12 04:15:26;;;;;;;17.20;15.30;;;;;;;6.87;77.01;100336.92;110763;1257;23577;-79
2023/01/12 04:18:06;;;;;;;17.40;14.90;;;;;;;6.85;77.02;100333.67;110725;1246;23777;-78
2023/01/12 04:20:38;;;;;;;16.40;14.60;;;;;;;6.81;77.04;100330.48;110801;1257;22977;-78
2023/01/12 04:23:19;;;;;;;19.10;14.10;;;;;;;6.79;77.11;100331.38;110287;1263;21976;-78
2023/01/12 04:26:06;;;;;;;16.10;14.30;;;;;;;6.75;77.14;100337.52;110506;1262;21972;-78
2023/01/12 04:31:54;;;;;;;19.30;17.30;;;;;;;6.68;77.32;100340.29;109466;1269;22955;-79
2023/01/12 04:34:41;;;;;;;20.10;18.00;;;;;;;6.66;77.32;100343.23;109495;1269;21973;-78
2023/01/12 04:37:23;;;;;;;22.90;20.70;;;;;;;6.66;77.42;100342.55;108989;1276;22005;-78
2023/01/12 04:39:59;;;;;;;22.50;20.30;;;;;;;6.66;77.36;100346.17;108900;1276;22839;-78
2023/01/12 04:43:14;;;;;;;22.20;20.00;;;;;;;6.65;77.41;100345.52;109232;1270;22170;-77
2023/01/12 04:45:58;;;;;;;43.00;38.70;;;;;;;6.60;77.41;100340.27;109421;1273;23064;-80
2023/01/12 04:48:38;;;;;;;25.90;23.20;;;;;;;6.60;77.39;100341.31;109491;1272;21949;-78
2023/01/12 04:51:38;;;;;;;24.20;21.80;;;;;;;6.58;77.47;100340.84;109427;1269;23693;-78
2023/01/12 04:54:22;;;;;;;22.10;19.90;;;;;;;6.58;77.43;100342.58;109417;1271;21985;-78
2023/01/12 04:57:08;;;;;;;21.80;19.50;;;;;;;6.55;77.35;100335.90;109787;1271;22074;-79
2023/01/12 04:59:37;;;;;;;23.00;20.30;;;;;;;6.52;77.35;100339.76;109481;1271;21960;-79
2023/01/12 05:02:40;;;;;;;18.60;16.70;;;;;;;6.49;77.40;100343.79;109000;1275;22005;-79
2023/01/12 05:05:44;;;;;;;20.70;18.50;;;;;;;6.44;77.46;100345.44;108589;1277;24412;-81
2023/01/12 05:11:12;;;;;;;18.30;15.30;;;;;;;6.36;77.59;100344.23;108441;1282;23053;-79
2023/01/12 05:13:56;;;;;;;16.20;14.00;;;;;;;6.35;77.61;100345.46;108432;1281;23721;-79
2023/01/12 05:16:39;;;;;;;20.30;15.00;;;;;;;6.34;77.65;100344.62;108722;1277;21984;-78
2023/01/12 05:19:07;;;;;;;69.10;46.90;;;;;;;6.33;77.61;100342.75;108811;1277;22230;-77
2023/01/12 05:21:35;;;;;;;23.70;17.40;;;;;;;6.31;77.54;100344.85;109233;1273;23634;-77
2023/01/12 05:24:03;;;;;;;20.20;15.40;;;;;;;6.29;77.47;100344.89;109252;1273;22725;-78
2023/01/12 05:26:34;;;;;;;17.10;14.20;;;;;;;6.28;77.46;100345.09;109241;1269;22026;-78
2023/01/12 05:29:18;;;;;;;17.10;14.20;;;;;;;6.26;77.46;100350.48;109944;1268;22326;-79
2023/01/12 05:31:52;;;;;;;19.80;14.60;;;;;;;6.24;77.33;100351.21;110058;1268;21992;-78
2023/01/12 05:34:42;;;;;;;16.90;13.70;;;;;;;6.20;77.34;100348.70;110161;1264;23043;-77
2023/01/12 05:37:15;;;;;;;15.90;12.90;;;;;;;6.16;77.29;100345.33;109914;1264;22200;-76
2023/01/12 05:39:43;;;;;;;18.00;12.10;;;;;;;6.14;77.38;100338.29;109959;1262;24371;-78
2023/01/12 05:45:00;;;;;;;16.00;13.90;;;;;;;6.09;77.42;100340.09;110541;1263;23059;-81
2023/01/12 05:47:31;;;;;;;18.90;13.30;;;;;;;6.09;77.36;100339.42;110361;1263;22061;-78
2023/01/12 05:49:59;;;;;;;19.60;11.70;;;;;;;6.07;77.37;100345.48;110382;1263;22050;-80
2023/01/12 05:52:37;;;;;;;18.00;11.90;;;;;;;6.05;77.35;100345.37;110300;1264;23116;-78
2023/01/12 05:55:09;;;;;;;22.10;14.10;;;;;;;6.03;77.41;100349.38;110271;1263;21992;-78
2023/01/12 05:57:40;;;;;;;25.50;22.20;;;;;;;6.02;77.39;100349.56;109760;1263;23894;-78
2023/01/12 06:00:15;;;;;;;32.10;27.60;;;;;;;6.00;77.28;100351.49;109262;1273;22948;-79
2023/01/12 06:03:02;;;;;;;32.20;28.80;;;;;;;5.99;77.38;100351.36;109311;1271;21980;-79
2023/01/12 06:05:36;;;;;;;33.50;28.00;;;;;;;5.98;77.36;100352.75;108965;1275;21985;-80
2023/01/12 06:08:08;;;;;;;33.00;26.60;;;;;;;5.98;77.32;100352.06;109006;1276;22430;-79
2023/01/12 06:10:39;;;;;;;30.10;23.80;;;;;;;5.98;77.30;100356.54;108532;1282;22024;-78
2023/01/12 06:19:00;;;;;;;19.80;13.70;;;;;;;5.88;77.12;100368.11;108493;1280;22206;-78
2023/01/12 06:21:37;;;;;;;27.20;18.40;;;;;;;5.85;77.06;100370.40;108556;1279;22020;-79
2023/01/12 06:24:18;;;;;;;23.00;17.20;;;;;;;5.83;76.90;100377.00;108822;1273;22922;-78
2023/01/12 06:27:45;;;;;;;23.60;18.10;;;;;;;5.75;76.77;100379.56;108812;1274;22069;-78
2023/01/12 06:30:27;;;;;;;;;;;;;;;5.67;76.79;100371.77;109763;1263;22014;-78
2023/01/12 06:33:18;;;;;;;;;;;;;;;;;;;;;
2023/01/12 06:36:11;;;;;;;23.00;16.10;;;;;;;5.47;77.02;100369.84;110379;1263;23775;-78
2023/01/12 06:38:44;;;;;;;27.20;16.60;;;;;;;5.45;77.02;100367.11;109891;1262;22698;-77
2023/01/12 06:44:11;;;;;;;25.90;16.90;;;;;;;5.44;76.97;100372.66;110100;1267;22837;-80
2023/01/12 06:47:02;;;;;;;23.90;17.30;;;;;;;5.44;77.01;100373.34;110488;1262;21960;-78
2023/01/12 06:49:36;;;;;;;23.40;16.80;;;;;;;5.43;76.91;100372.50;110534;1261;21980;-78
2023/01/12 06:52:17;;;;;;;21.60;18.10;;;;;;;5.42;76.88;100368.05;110464;1261;22243;-78
2023/01/12 06:55:08;;;;;;;31.40;22.00;;;;;;;5.39;76.91;100367.39;110570;1261;22737;-77
2023/01/12 06:57:38;;;;;;;24.20;18.90;;;;;;;5.37;76.88;100368.10;110543;1257;21960;-78
2023/01/12 07:00:08;;;;;;;27.30;20.20;;;;;;;5.36;76.85;100374.34;110480;1259;23583;-79
2023/01/12 07:02:42;;;;;;;28.20;20.80;;;;;;;5.36;76.91;100374.00;109547;1268;22008;-80
2023/01/12 07:05:10;;;;;;;;;;;;;;;5.33;76.81;100374.21;109617;1271;21982;-77
2023/01/12 07:07:39;;;;;;;24.50;20.40;;;;;;;5.25;77.04;100366.23;109689;1271;22389;-80
2023/01/12 07:10:16;;;;;;;28.10;21.00;;;;;;;5.23;77.03;100365.59;109421;1270;22441;-78
2023/01/12 07:12:49;;;;;;;25.60;18.50;;;;;;;5.21;76.88;100363.19;109595;1270;22099;-79
2023/01/12 07:15:20;;;;;;;27.00;18.80;;;;;;;5.22;76.96;100365.08;109030;1274;23045;-78
2023/01/12 07:17:55;;;;;;;25.10;18.50;;;;;;;5.23;76.87;100366.77;109094;1274;22005;-79
2023/01/12 07:20:38;;;;;;;29.50;20.10;;;;;;;5.24;76.86;100365.20;108724;1274;23039;-79
2023/01/12 07:23:15;;;;;;;31.20;20.90;;;;;;;5.25;76.71;100361.56;109173;1273;21956;-79
2023/01/12 07:25:59;;;;;;;29.00;21.70;;;;;;;5.22;76.62;100368.17;109998;1268;21983;-79
2023/01/12 07:28:30;;;;;;;31.40;22.20;;;;;;;5.21;76.74;100366.80;109773;1268;24389;-79
2023/01/12 07:31:01;;;;;;;25.20;19.90;;;;;;;5.21;76.69;100363.52;109832;1268;21996;-81
2023/01/12 07:33:30;;;;;;;28.70;19.50;;;;;;;5.19;76.55;100359.92;110243;1262;23727;-79
2023/01/12 07:36:00;;;;;;;26.80;18.70;;;;;;;5.21;76.67;100358.70;110171;1263;22052;-79
2023/01/12 07:38:30;;;;;;;29.00;23.60;;;;;;;5.24;76.70;100354.52;109919;1264;23637;-80
2023/01/12 07:41:01;;;;;;;30.20;22.20;;;;;;;5.26;76.46;100357.58;110120;1262;23596;-77
2023/01/12 07:43:32;;;;;;;27.60;21.60;;;;;;;5.27;76.44;100353.77;109714;1269;22021;-80
2023/01/12 07:46:00;;;;;;;24.50;20.00;;;;;;;5.29;76.24;100357.20;110126;1268;21977;-80
2023/01/12 07:48:29;;;;;;;23.90;17.90;;;;;;;5.28;76.20;100356.84;109790;1270;22040;-79
2023/01/12 07:50:57;;;;;;;27.10;21.10;;;;;;;5.29;76.13;100361.34;109587;1270;22992;-80
2023/01/12 07:53:25;;;;;;;26.40;19.10;;;;;;;5.32;75.93;100360.61;109885;1269;21999;-79
2023/01/12 07:55:53;;;;;;;24.80;17.50;;;;;;;5.33;76.06;100358.85;109699;1265;23359;-79
2023/01/12 07:58:20;;;;;;;37.90;32.20;;;;;;;5.37;76.08;100353.10;109832;1265;21983;-79
2023/01/12 08:00:48;;;;;;;24.20;17.90;;;;;;;5.42;76.03;100351.11;110357;1257;23596;-80
2023/01/12 08:03:16;;;;;;;25.20;18.40;;;;;;;5.45;75.86;100347.78;111072;1257;21968;-79
2023/01/12 08:05:44;;;;;;;29.20;19.10;;;;;;;5.46;75.74;100341.89;111115;1257;22063;-82
2023/01/12 08:08:12;;;;;;;24.20;17.30;;;;;;;5.50;75.78;100340.98;111094;1257;21978;-80
2023/01/12 08:10:47;;;;;;;19.90;16.40;;;;;;;5.55;75.69;100344.33;110989;1257;21985;-80
2023/01/12 08:13:39;;;;;;;26.10;18.60;;;;;;;5.55;75.45;100342.44;110613;1257;22183;-81
2023/01/12 08:16:42;;;;;;;33.80;23.00;;;;;;;5.56;75.44;100347.42;110684;1262;23716;-81
2023/01/12 08:19:29;;;;;;;29.90;23.10;;;;;;;5.59;75.36;100351.01;110485;1264;23612;-81
2023/01/12 08:22:15;;;;;;;33.80;25.90;;;;;;;5.62;75.24;100353.88;110291;1261;21993;-80
2023/01/12 08:24:55;;;;;;;41.60;32.20;;;;;;;5.68;75.22;100355.86;109915;1269;22369;-84
2023/01/12 08:27:33;;;;;;;31.00;24.50;;;;;;;5.73;75.06;100357.67;110179;1269;22455;-80
2023/01/12 08:30:09;;;;;;;31.70;25.10;;;;;;;5.76;74.88;100357.45;109650;1269;22023;-80
2023/01/12 08:32:43;;;;;;;31.00;26.50;;;;;;;5.81;74.95;100362.17;110186;1263;21994;-81
2023/01/12 08:35:21;;;;;;;29.10;26.00;;;;;;;5.89;74.87;100364.80;110054;1269;21985;-80
2023/01/12 08:37:52;;;;;;;23.80;19.70;;;;;;;5.95;74.64;100362.31;109546;1273;22001;-79
2023/01/12 08:41:30;;;;;;;29.70;21.60;;;;;;;6.02;74.67;100361.32;109309;1270;21986;-78
2023/01/12 08:43:11;;;;;;;36.60;27.60;;;;;;;6.12;74.69;100362.34;109750;1270;22017;-79
2023/01/12 08:45:41;;;;;;;32.30;24.20;;;;;;;6.20;74.52;100360.98;109801;1270;21997;-79
2023/01/12 08:48:10;;;;;;;22.50;16.20;;;;;;;6.27;74.28;100356.00;109313;1272;22425;-80
2023/01/12 08:50:38;;;;;;;20.70;17.70;;;;;;;6.34;74.19;100355.52;109731;1272;22038;-79
2023/01/12 08:53:09;;;;;;;29.20;19.80;;;;;;;6.41;74.11;100356.91;109425;1272;23038;-78
2023/01/12 08:55:37;;;;;;;28.40;22.20;;;;;;;6.53;74.20;100357.36;109200;1272;22807;-78
2023/01/12 08:58:07;;;;;;;27.00;23.30;;;;;;;6.67;74.00;100354.64;109642;1268;21975;-79
2023/01/12 09:00:36;;;;;;;44.80;31.60;;;;;;;6.77;73.69;100351.31;109462;1272;22748;-82
2023/01/12 09:03:06;;;;;;;43.30;30.20;;;;;;;6.84;73.43;100350.98;109447;1272;21983;-78
2023/01/12 09:05:33;;;;;;;35.40;23.70;;;;;;;6.93;73.20;100353.04;109448;1268;22001;-77
2023/01/12 09:08:01;;;;;;;17.60;14.10;;;;;;;7.01;72.56;100350.76;109698;1268;24822;-77
2023/01/12 09:10:29;;;;;;;21.40;16.70;;;;;;;7.12;72.58;100348.79;109737;1268;22720;-77
2023/01/12 09:12:57;;;;;;;21.00;15.80;;;;;;;7.25;72.54;100349.34;109547;1265;23135;-77
2023/01/12 09:15:24;;;;;;;18.40;13.50;;;;;;;7.38;72.27;100347.13;110239;1264;22000;-77
2023/01/12 09:17:53;;;;;;;19.00;12.20;;;;;;;7.49;71.82;100351.20;110303;1257;21971;-77
2023/01/12 09:20:21;;;;;;;19.00;11.70;;;;;;;7.63;71.70;100351.70;110734;1257;22046;-78
2023/01/12 09:22:49;;;;;;;17.80;13.30;;;;;;;7.78;70.91;100346.09;110974;1257;21963;-77
2023/01/12 09:25:19;;;;;;;21.90;12.50;;;;;;;7.94;70.93;100346.36;111060;1257;22168;-77
2023/01/12 09:27:47;;;;;;;19.00;12.90;;;;;;;8.12;70.72;100345.17;110782;1257;24308;-78
2023/01/12 09:30:14;;;;;;;17.30;13.70;;;;;;;8.30;70.29;100343.14;110921;1257;21966;-77
2023/01/12 09:32:43;;;;;;;15.60;11.10;;;;;;;8.42;69.54;100343.34;110772;1257;22958;-77
2023/01/12 09:35:13;;;;;;;19.70;14.20;;;;;;;8.50;69.27;100340.86;110701;1257;22252;-77
2023/01/12 09:37:45;;;;;;;20.40;12.90;;;;;;;8.60;68.48;100344.56;111002;1257;23082;-77
2023/01/12 09:40:14;;;;;;;16.60;14.80;;;;;;;8.69;68.55;100343.92;110711;1258;22825;-74
2023/01/12 09:48:24;;;;;;;19.30;13.10;;;;;;;9.17;67.40;100330.30;109662;1257;1423816;-75
2023/01/12 09:51:17;;;;;;;18.30;11.40;;;;;;;9.29;66.67;100327.83;110966;1257;21933;-76
2023/01/12 09:53:45;;;;;;;16.70;10.90;;;;;;;9.31;66.03;100325.67;110835;1257;21979;-78
2023/01/12 09:56:53;;;;;;;15.20;9.70;;;;;;;9.29;65.35;100317.75;111032;1257;22046;-77
2023/01/12 09:59:47;;;;;;;20.20;10.20;;;;;;;9.16;64.88;100309.66;110797;1257;21961;-77
2023/01/12 10:02:15;;;;;;;17.20;9.70;;;;;;;9.08;64.69;100307.16;110988;1257;21974;-77
2023/01/12 10:04:45;;;;;;;17.00;8.90;;;;;;;9.04;64.49;100302.08;110948;1257;21971;-78
2023/01/12 10:07:19;;;;;;;16.30;9.60;;;;;;;9.01;64.42;100300.25;110710;1258;23053;-77
2023/01/12 10:09:50;;;;;;;23.70;13.50;;;;;;;9.02;64.58;100301.95;110815;1257;21952;-79
2023/01/12 10:12:31;;;;;;;23.00;11.30;;;;;;;9.04;64.42;100301.88;110799;1257;22304;-77
2023/01/12 10:15:49;;;;;;;18.10;11.30;;;;;;;9.10;64.80;100302.74;110704;1257;22019;-77
2023/01/12 10:18:32;;;;;;;14.70;9.00;;;;;;;9.17;64.40;100301.13;110078;1265;22686;-78
2023/01/12 10:21:10;;;;;;;17.40;11.00;;;;;;;9.14;63.94;100298.60;110172;1265;23704;-79
2023/01/12 10:23:38;;;;;;;26.20;19.70;;;;;;;9.18;64.12;100296.75;110348;1264;21995;-78
2023/01/12 10:26:12;;;;;;;15.00;9.90;;;;;;;9.30;64.22;100293.75;110328;1265;21973;-79
2023/01/12 10:28:45;;;;;;;15.40;10.00;;;;;;;9.40;63.61;100287.33;110091;1265;24298;-78
2023/01/12 10:31:22;;;;;;;16.60;9.90;;;;;;;9.51;63.52;100281.59;110465;1265;22088;-77
2023/01/12 10:34:10;;;;;;;20.10;13.70;;;;;;;9.69;63.43;100271.55;110140;1265;21970;-79
2023/01/12 10:36:45;;;;;;;21.70;12.80;;;;;;;9.83;62.96;100268.11;110224;1265;21981;-80
2023/01/12 10:39:37;;;;;;;11.60;9.30;;;;;;;9.97;62.95;100264.48;110524;1265;21991;-77
2023/01/12 10:45:15;;;;;;;17.20;9.50;;;;;;;10.28;61.90;100256.21;110131;1265;23699;-78
2023/01/12 10:47:47;;;;;;;17.40;10.00;;;;;;;10.40;61.41;100256.30;110397;1265;21972;-78
2023/01/12 10:50:36;;;;;;;14.80;9.70;;;;;;;10.51;60.95;100262.67;110298;1265;22729;-77
2023/01/12 10:53:16;;;;;;;13.60;8.90;;;;;;;10.65;60.32;100260.72;110184;1258;22700;-77
2023/01/12 10:55:46;;;;;;;15.70;9.50;;;;;;;10.75;60.02;100251.44;110746;1257;21973;-79
2023/01/12 10:58:29;;;;;;;17.40;7.60;;;;;;;10.90;59.42;100242.99;110835;1257;21965;-77
2023/01/12 11:00:58;;;;;;;11.40;7.40;;;;;;;11.06;58.75;100230.85;110633;1257;23625;-78
2023/01/12 11:03:36;;;;;;;14.80;8.00;;;;;;;11.31;58.64;100228.42;110458;1262;21987;-78
2023/01/12 11:06:21;;;;;;;13.60;8.60;;;;;;;11.88;58.52;100228.52;110567;1263;23037;-78
2023/01/12 11:08:49;;;;;;;9.20;6.20;;;;;;;12.59;58.28;100221.26;110596;1262;21970;-79
2023/01/12 11:11:30;;;;;;;12.70;9.00;;;;;;;13.46;58.24;100217.79;110429;1262;23793;-78
2023/01/12 11:14:05;;;;;;;12.20;9.30;;;;;;;14.33;57.36;100210.86;110427;1262;22380;-78
2023/01/12 11:16:57;;;;;;;14.00;8.40;;;;;;;15.21;54.19;100210.05;110448;1262;21967;-76
2023/01/12 11:19:50;;;;;;;12.70;8.70;;;;;;;15.81;52.65;100210.32;110303;1262;21956;-76
2023/01/12 11:22:51;;;;;;;10.10;7.80;;;;;;;16.24;50.00;100202.58;110685;1258;21962;-78
2023/01/12 11:25:45;;;;;;;14.00;6.80;;;;;;;15.55;46.30;100192.59;110142;1265;22150;-76
2023/01/12 11:28:34;;;;;;;11.40;5.80;;;;;;;14.72;46.64;100192.41;110091;1263;22006;-76
2023/01/12 11:32:42;;;;;;;21.30;10.50;;;;;;;13.98;48.80;100190.78;110130;1264;21994;-77
2023/01/12 11:35:39;;;;;;;17.70;10.40;;;;;;;13.61;48.94;100183.15;110426;1251;23031;-77
2023/01/12 11:38:26;;;;;;;18.40;12.30;;;;;;;13.03;49.40;100179.27;110340;1264;23030;-76
2023/01/12 11:40:57;;;;;;;15.40;9.50;;;;;;;12.57;50.42;100179.80;110267;1264;21972;-76
2023/01/12 11:43:55;;;;;;;13.50;7.20;;;;;;;12.34;51.27;100175.14;110192;1257;23027;-77
2023/01/12 11:46:48;;;;;;;15.20;7.70;;;;;;;11.84;51.32;100172.75;110649;1257;22240;-76
2023/01/12 11:49:32;;;;;;;8.90;6.10;;;;;;;11.47;52.39;100170.06;110883;1257;22925;-76
2023/01/12 11:52:01;;;;;;;12.70;7.40;;;;;;;11.17;52.94;100164.41;110746;1257;21980;-76
2023/01/12 11:54:31;;;;;;;11.90;7.40;;;;;;;10.91;53.52;100157.52;110992;1257;23714;-76
2023/01/12 11:57:08;;;;;;;9.90;6.60;;;;;;;10.75;54.29;100151.37;111024;1257;21967;-77
2023/01/12 12:00:16;;;;;;;13.60;6.30;;;;;;;10.57;54.57;100142.34;110661;1257;23083;-76
2023/01/12 12:02:57;;;;;;;13.60;6.50;;;;;;;10.36;55.20;100137.45;110930;1257;22003;-81
2023/01/12 12:05:57;;;;;;;17.20;10.10;;;;;;;10.26;55.71;100134.38;111243;1257;24350;-82
2023/01/12 12:08:59;;;;;;;17.80;12.30;;;;;;;10.10;55.88;100136.58;111044;1257;21970;-82
2023/01/12 12:11:41;;;;;;;15.60;9.20;;;;;;;10.01;56.50;100128.92;111014;1257;22474;-83
2023/01/12 12:15:18;;;;;;;14.70;7.30;;;;;;;9.93;56.76;100127.30;111303;1257;23044;-85
2023/01/12 12:18:17;;;;;;;12.30;7.20;;;;;;;9.89;57.16;100126.93;111373;1257;22482;-80
2023/01/12 12:21:30;;;;;;;14.10;6.70;;;;;;;9.92;57.40;100126.84;111296;1257;21982;-77
2023/01/12 12:24:23;;;;;;;19.70;6.00;;;;;;;9.88;57.30;100123.15;111054;1257;21973;-77
2023/01/12 12:27:19;;;;;;;14.10;6.20;;;;;;;9.82;57.46;100118.85;110972;1257;21966;-76
2023/01/12 12:30:06;;;;;;;10.10;6.00;;;;;;;9.81;57.71;100112.30;110482;1263;21972;-75
2023/01/12 12:33:15;;;;;;;9.60;5.50;;;;;;;9.84;57.78;100111.84;110534;1263;23026;-76
2023/01/12 12:36:14;;;;;;;11.70;5.60;;;;;;;9.84;57.65;100112.20;110591;1262;22984;-74
2023/01/12 12:39:36;;;;;;;15.70;6.50;;;;;;;9.83;57.67;100106.50;110552;1262;21974;-75
2023/01/12 12:46:16;;;;;;;11.50;5.80;;;;;;;9.82;57.85;100098.36;109806;1270;22001;-75
2023/01/12 12:49:03;;;;;;;11.40;6.00;;;;;;;9.84;57.92;100091.00;109589;1271;22734;-75
2023/01/12 12:51:35;;;;;;;11.60;6.60;;;;;;;9.86;57.94;100089.33;109055;1274;21985;-76
2023/01/12 12:54:16;;;;;;;9.30;5.50;;;;;;;9.90;57.95;100088.65;109374;1273;24345;-75
2023/01/12 12:56:46;;;;;;;9.10;6.10;;;;;;;9.93;57.87;100091.84;109269;1273;22946;-79
2023/01/12 12:59:32;;;;;;;8.70;5.90;;;;;;;9.92;57.63;100090.31;109298;1273;21992;-76
2023/01/12 13:02:01;;;;;;;12.60;6.30;;;;;;;9.89;57.63;100087.48;108837;1278;22945;-75
2023/01/12 13:04:41;;;;;;;17.20;5.90;;;;;;;9.87;57.62;100082.52;108820;1278;21993;-77
2023/01/12 13:07:19;;;;;;;15.70;6.50;;;;;;;9.87;57.69;100084.27;108936;1277;21990;-76
2023/01/12 13:09:48;;;;;;;12.10;5.80;;;;;;;9.89;57.80;100082.28;108878;1275;22838;-76
2023/01/12 13:12:36;;;;;;;8.20;5.20;;;;;;;9.90;57.78;100077.37;109164;1274;22025;-75
2023/01/12 13:15:20;;;;;;;11.30;6.40;;;;;;;9.89;57.88;100079.66;109120;1275;24346;-75
2023/01/12 13:17:51;;;;;;;12.20;6.10;;;;;;;9.89;57.89;100084.87;109215;1275;21986;-76
2023/01/12 13:20:19;;;;;;;11.50;5.70;;;;;;;9.87;57.81;100084.60;110136;1258;22004;-76
2023/01/12 13:22:55;;;;;;;10.30;6.70;;;;;;;9.84;57.75;100083.66;111040;1257;21972;-76
2023/01/12 13:25:23;;;;;;;12.70;6.30;;;;;;;9.83;57.69;100088.44;110824;1257;23594;-76